Flight Track Log - Related Links

Times and Time Zones

All times are in EDT time to prevent confusion due to time zone crossing. See the SWA3497 flight status page for this flight to view local times or setup timezone preferences in your user account.


Time Position Orientation Groundspeed Altitude Reporting Facility
EDT Latitude Longitude Course Direction KTS MPH feet Rate Location/Type
Wed 08:54:54 AM 28.4000 -81.3000 150° Southeast 158 182 700  Level Orlando TRACON
Wed 08:56:06 AM 28.3500 -81.2667 150° Southeast 217 250 3,000 2,362 Climbing Orlando TRACON
Wed 08:57:01 AM 28.3500 -81.2000 90° East 228 262 5,700 2,972 Climbing Orlando TRACON
Wed 08:57:55 AM 28.4000 -81.1667 30° Northeast 249 287 8,400 2,510 Climbing Orlando TRACON
Wed 08:59:34 AM 28.5231 -81.2128 342° North 321 369 12,100 2,717 Climbing Jacksonville Center
Wed 09:00:34 AM 28.6169 -81.2325 350° North 337 388 15,600 3,150 Climbing Jacksonville Center
Wed 09:01:34 AM 28.7175 -81.2497 351° North 344 396 18,400 2,800 Climbing Jacksonville Center
Wed 09:02:34 AM 28.8242 -81.2669 352° North 365 420 21,200 2,600 Climbing Jacksonville Center
Wed 09:03:34 AM 28.9350 -81.2842 352° North 381 438 23,600 2,400 Climbing Jacksonville Center
Wed 09:04:34 AM 29.0436 -81.3014 352° North 387 445 26,000 2,150 Climbing Jacksonville Center
Wed 09:05:34 AM 29.1608 -81.3114 356° North 406 467 27,900 1,900 Climbing Jacksonville Center
Wed 09:06:34 AM 29.2797 -81.3189 357° North 416 479 29,800 1,950 Climbing Jacksonville Center
Wed 09:07:34 AM 29.4050 -81.3242 358° North 433 498 31,800 1,950 Climbing Jacksonville Center
Wed 09:08:34 AM 29.5200 -81.3342 356° North 428 493 33,700 1,600 Climbing Jacksonville Center
Wed 09:09:34 AM 29.6392 -81.3417 357° North 423 487 35,000 1,400 Climbing Jacksonville Center
Wed 09:10:34 AM 29.7622 -81.3469 358° North 423 487 36,500 1,700 Climbing Jacksonville Center
Wed 09:11:34 AM 29.8794 -81.3547 357° North 423 487 38,400 1,240 Climbing Jacksonville Center
Wed 09:12:35 AM 29.9964 -81.3625 357° North 423 487 39,000 300 Climbing Jacksonville Center
Wed 09:13:34 AM 30.1156 -81.3678 358° North 423 487 39,000  Level Jacksonville Center
Wed 09:14:34 AM 30.2325 -81.3756 357° North 418 481 39,000  Level Jacksonville Center
Wed 09:15:34 AM 30.3494 -81.3808 358° North 418 481 39,000  Level Jacksonville Center
Wed 09:16:34 AM 30.4789 -81.3886 357° North 423 487 39,000  Level Jacksonville Center
Wed 09:17:34 AM 30.5917 -81.3964 357° North 418 481 39,000  Level Jacksonville Center
Wed 09:18:34 AM 30.7067 -81.4019 358° North 418 481 39,000  Level Jacksonville Center
Wed 09:19:34 AM 30.8147 -81.3589 19° North 401 461 39,000  Level Jacksonville Center
Wed 09:20:34 AM 30.9164 -81.2967 28° Northeast 406 467 39,000  Level Jacksonville Center
Wed 09:21:34 AM 31.0178 -81.2344 28° Northeast 401 461 39,000  Level Jacksonville Center
Wed 09:22:34 AM 31.1214 -81.1697 28° Northeast 406 467 39,000  Level Jacksonville Center
Wed 09:23:34 AM 31.2250 -81.1069 27° Northeast 411 473 39,000  Level Jacksonville Center
Wed 09:24:34 AM 31.3283 -81.0442 27° Northeast 411 473 39,000  Level Jacksonville Center
Wed 09:25:34 AM 31.4317 -80.9714 31° Northeast 417 480 39,000  Level Jacksonville Center
Wed 09:26:34 AM 31.5350 -80.9083 27° Northeast 412 474 39,000  Level Jacksonville Center
Wed 09:27:34 AM 31.6281 -80.8503 28° Northeast 418 481 39,000  Level Jacksonville Center
Wed 09:28:34 AM 31.7439 -80.7794 27° Northeast 418 481 39,000  Level Jacksonville Center
Wed 09:29:34 AM 31.8492 -80.7133 28° Northeast 418 481 39,000  Level Jacksonville Center
Wed 09:30:34 AM 31.9544 -80.6422 30° Northeast 430 495 39,000  Level Jacksonville Center
Wed 09:31:34 AM 32.0619 -80.5783 27° Northeast 430 495 39,000  Level Jacksonville Center
Wed 09:32:34 AM 32.1589 -80.5172 28° Northeast 430 495 39,000  Level Jacksonville Center
Wed 09:33:34 AM 32.2764 -80.4428 28° Northeast 425 489 39,000  Level Jacksonville Center
Wed 09:34:35 AM 32.3794 -80.3711 30° Northeast 425 489 39,000  Level Jacksonville Center
Wed 09:35:34 AM 32.4803 -80.2994 31° Northeast 425 489 39,000  Level Jacksonville Center
Wed 09:36:34 AM 32.5725 -80.2131 38° Northeast 425 489 39,000  Level Jacksonville Center
Wed 09:37:34 AM 32.6708 -80.1261 37° Northeast 425 489 39,000  Level Jacksonville Center
Wed 09:38:34 AM 32.7608 -80.0419 38° Northeast 419 482 39,000  Level Jacksonville Center
Wed 09:39:34 AM 32.8528 -79.9550 38° Northeast 419 482 39,000  Level Jacksonville Center
Wed 09:40:34 AM 32.9444 -79.8678 39° Northeast 419 482 39,000  Level Jacksonville Center
Wed 09:41:34 AM 33.0406 -79.7853 36° Northeast 419 482 39,000  Level Jacksonville Center
Wed 09:42:34 AM 33.1322 -79.6978 39° Northeast 419 482 39,000  Level Jacksonville Center
Wed 09:43:34 AM 33.2261 -79.6125 37° Northeast 419 482 39,000  Level Jacksonville Center
Wed 09:44:34 AM 33.3178 -79.5269 38° Northeast 419 482 39,000  Level Jacksonville Center
Wed 09:45:34 AM 33.4156 -79.4386 37° Northeast 419 482 39,000  Level Jacksonville Center
Wed 09:46:34 AM 33.5050 -79.3506 39° Northeast 425 489 39,000  Level Jacksonville Center
Wed 09:47:34 AM 33.6006 -79.2644 37° Northeast 425 489 39,000  Level Jacksonville Center
Wed 09:48:34 AM 33.6942 -79.1783 37° Northeast 430 495 39,000  Level Jacksonville Center
Wed 09:49:34 AM 33.7894 -79.0867 39° Northeast 430 495 39,000  Level Jacksonville Center
Wed 09:50:34 AM 33.8850 -79.0000 37° Northeast 430 495 39,000  Level Jacksonville Center
Wed 09:51:34 AM 33.9800 -78.9108 38° Northeast 430 495 39,000  Level Jacksonville Center
Wed 09:53:06 AM 34.1147 -78.7850 38° Northeast 434 499 39,000  Level Washington Center
Wed 09:54:07 AM 34.2089 -78.6931 39° Northeast 434 499 39,000  Level Washington Center
Wed 09:55:08 AM 34.3031 -78.6036 38° Northeast 434 499 39,000  Level Washington Center
Wed 09:56:06 AM 34.4075 -78.5044 38° Northeast 429 494 39,000  Level Washington Center
Wed 09:57:07 AM 34.5036 -78.4119 38° Northeast 429 494 39,000  Level Washington Center
Wed 09:58:07 AM 34.5997 -78.3194 38° Northeast 429 494 39,000  Level Washington Center
Wed 09:59:06 AM 34.6958 -78.2267 38° Northeast 429 494 39,000  Level Washington Center
Wed 10:00:07 AM 34.7917 -78.1311 39° Northeast 429 494 39,000  Level Washington Center
Wed 10:01:07 AM 34.8747 -78.0453 40° Northeast 429 494 39,000  Level Washington Center
Wed 10:02:08 AM 34.9728 -77.9492 39° Northeast 434 499 39,000  Level Washington Center
Wed 10:03:06 AM 35.0683 -77.8556 39° Northeast 439 505 39,000  Level Washington Center
Wed 10:04:07 AM 35.1642 -77.7644 38° Northeast 439 505 39,000  Level Washington Center
Wed 10:05:07 AM 35.2575 -77.6678 40° Northeast 439 505 39,000  Level Washington Center
Wed 10:06:08 AM 35.3489 -77.5783 39° Northeast 433 498 39,000  Level Washington Center
Wed 10:07:08 AM 35.4442 -77.4939 36° Northeast 428 493 39,000  Level Washington Center
Wed 10:08:06 AM 35.5372 -77.4119 36° Northeast 418 481 39,000  Level Washington Center
Wed 10:09:07 AM 35.6344 -77.3272 35° Northeast 412 474 39,000  Level Washington Center
Wed 10:10:07 AM 35.7275 -77.2450 36° Northeast 412 474 39,000  Level Washington Center
Wed 10:11:09 AM 35.8244 -77.1622 35° Northeast 412 474 39,000  Level Washington Center
Wed 10:12:06 AM 35.9217 -77.0719 37° Northeast 404 465 39,000  Level Washington Center
Wed 10:13:07 AM 36.0164 -76.9864 36° Northeast 409 471 39,000  Level Washington Center
Wed 10:14:08 AM 36.1114 -76.9058 34° Northeast 409 471 39,000  Level Washington Center
Wed 10:15:06 AM 36.2083 -76.8172 36° Northeast 414 476 39,000  Level Washington Center
Wed 10:16:07 AM 36.3111 -76.7467 29° Northeast 419 482 39,000  Level Washington Center
Wed 10:17:07 AM 36.4142 -76.6761 29° Northeast 419 482 39,000  Level Washington Center
Wed 10:18:08 AM 36.5169 -76.6000 31° Northeast 419 482 39,000  Level Washington Center
Wed 10:19:06 AM 36.6219 -76.5261 29° Northeast 424 488 39,000  Level Washington Center
Wed 10:20:07 AM 36.7225 -76.4497 31° Northeast 424 488 39,000  Level Washington Center
Wed 10:21:08 AM 36.8294 -76.3731 30° Northeast 431 496 39,000  Level Washington Center
Wed 10:22:08 AM 36.9258 -76.3039 30° Northeast 431 496 39,000  Level Washington Center
Wed 10:23:08 AM 37.0306 -76.2267 30° Northeast 437 503 39,000  Level Washington Center
Wed 10:24:06 AM 37.1500 -76.1442 29° Northeast 437 503 39,000  Level Washington Center
Wed 10:25:07 AM 37.2544 -76.0667 31° Northeast 437 503 39,000  Level Washington Center
Wed 10:26:07 AM 37.3592 -75.9917 30° Northeast 437 503 39,000  Level Washington Center
Wed 10:27:08 AM 37.4594 -75.9189 30° Northeast 424 488 39,000  Level Washington Center
Wed 10:28:08 AM 37.5639 -75.8381 32° Northeast 424 488 39,000  Level Washington Center
Wed 10:29:08 AM 37.6703 -75.7569 31° Northeast 430 495 39,000  Level Washington Center
Wed 10:30:06 AM 37.7769 -75.6811 29° Northeast 430 495 39,000  Level Washington Center
Wed 10:31:07 AM 37.8811 -75.6022 31° Northeast 430 495 39,000  Level Washington Center
Wed 10:32:07 AM 37.9875 -75.5258 29° Northeast 430 495 39,000  Level Washington Center
Wed 10:33:06 AM 38.0875 -75.4361 35° Northeast 435 501 39,000  Level Washington Center
Wed 10:34:06 AM 38.1833 -75.3433 37° Northeast 435 501 39,000  Level Washington Center
Wed 10:35:07 AM 38.2747 -75.2425 41° Northeast 435 501 39,000  Level Washington Center
Wed 10:36:07 AM 38.3578 -75.1522 40° Northeast 435 501 39,000  Level Washington Center
Wed 10:37:08 AM 38.4492 -75.0508 41° Northeast 430 495 39,000  Level Washington Center
Wed 10:38:06 AM 38.5447 -74.9547 38° Northeast 430 495 39,000  Level Washington Center
Wed 10:39:07 AM 38.6400 -74.8500 41° Northeast 430 495 39,000  Level Washington Center
Wed 10:40:07 AM 38.7350 -74.7481 40° Northeast 436 502 39,000  Level Washington Center
Wed 10:41:08 AM 38.8325 -74.6483 39° Northeast 441 507 39,000  Level Washington Center
Wed 10:42:06 AM 38.9275 -74.5456 40° Northeast 446 513 39,000  Level Washington Center
Wed 10:43:06 AM 39.0183 -74.4481 40° Northeast 446 513 39,000  Level Washington Center
Wed 10:44:07 AM 39.1111 -74.3478 40° Northeast 441 507 39,000  Level Washington Center
Wed 10:45:07 AM 39.2161 -74.2333 40° Northeast 442 509 39,000  Level Washington Center
Wed 10:46:08 AM 39.3086 -74.1325 40° Northeast 442 509 39,000  Level Washington Center
Wed 10:47:06 AM 39.4011 -74.0311 40° Northeast 442 509 39,000 -477 Level Washington Center
Wed 10:48:39 AM 39.5364 -73.8792 41° Northeast 451 519 37,800 -1,255 Descending Boston Center
Wed 10:49:39 AM 39.6272 -73.7786 40° Northeast 446 513 35,800 -1,950 Descending Boston Center
Wed 10:50:39 AM 39.7222 -73.6753 40° Northeast 439 505 33,900 -1,900 Descending Boston Center
Wed 10:51:39 AM 39.8150 -73.5717 41° Northeast 439 505 32,000 -1,450 Descending Boston Center
Wed 10:52:39 AM 39.9097 -73.4653 41° Northeast 439 505 31,000 -500 Descending Boston Center
Wed 10:53:39 AM 39.9981 -73.3608 42° Northeast 439 505 31,000 -500 Level Boston Center
Wed 10:54:39 AM 40.0989 -73.2564 38° Northeast 439 505 30,000 -950 Descending Boston Center
Wed 10:55:39 AM 40.1892 -73.1492 42° Northeast 444 511 29,100 -950 Descending Boston Center
Wed 10:56:39 AM 40.2900 -73.0386 40° Northeast 449 517 28,100 -1,050 Descending Boston Center
Wed 10:57:39 AM 40.3822 -72.9303 42° Northeast 449 517 27,000 -1,100 Descending Boston Center
Wed 10:58:39 AM 40.4678 -72.8303 42° Northeast 431 496 25,900 -1,100 Descending Boston Center
Wed 10:59:39 AM 40.5578 -72.7350 39° Northeast 418 481 24,800 -1,100 Descending Boston Center
Wed 11:00:39 AM 40.6350 -72.6342 45° Northeast 403 464 23,700 -1,400 Descending Boston Center
Wed 11:01:39 AM 40.7144 -72.5469 40° Northeast 385 443 22,000 -1,900 Descending Boston Center
Wed 11:02:39 AM 40.8000 -72.4511 40° Northeast 378 435 19,900 -2,000 Descending Boston Center
Wed 11:03:39 AM 40.8539 -72.3414 57° Northeast 357 411 18,000 -1,889 Descending Boston Center
Wed 11:04:27 AM 40.8936 -72.2617 57° Northeast 365 420 16,500 -2,000 Descending Boston Center
Wed 11:04:57 AM 40.9206 -72.1983 61° Northeast 368 423 15,400 -1,917 Descending Boston Center
Wed 11:05:39 AM 40.9600 -72.1158 58° Northeast 357 411 14,200 -1,800 Descending Boston Center
Wed 11:05:57 AM 40.9786 -72.0800 55° Northeast 349 402 13,600 -1,600 Descending Boston Center
Wed 11:06:39 AM 41.0117 -72.0111 58° Northeast 349 402 12,600 -1,672 Descending Boston Center
Wed 11:06:58 AM 41.0261 -71.9750 62° Northeast 343 395 11,900 -1,600 Descending Boston Center
Wed 11:07:39 AM 41.0633 -71.9089 53° Northeast 338 389 11,000 -1,254 Descending Boston Center
Wed 11:08:05 AM 41.0819 -71.8728 56° Northeast 326 375 10,500 -1,100 Descending Boston Center
Wed 11:08:39 AM 41.1169 -71.8231 47° Northeast 312 359 9,900 -1,400 Descending Boston Center
Wed 11:09:05 AM 41.1397 -71.7869 50° Northeast 306 352 9,100 -1,400 Descending Boston Center
Wed 11:09:39 AM 41.1686 -71.7369 52° Northeast 297 342 8,500 -1,200 Descending Boston Center
Wed 11:10:00 AM 41.1850 -71.7092 52° Northeast 292 336 8,000 -1,400 Descending Boston Center
Wed 11:10:39 AM 41.2203 -71.6564 48° Northeast 290 334 7,100 -1,574 Descending Boston Center
Wed 11:11:01 AM 41.2367 -71.6258 54° Northeast 285 328 6,400 -1,500 Descending Boston Center
Wed 11:11:39 AM 41.2717 -71.5756 47° Northeast 284 327 5,600 -896 Descending Boston Center
Wed 11:12:08 AM 41.2944 -71.5394 50° Northeast 266 306 5,400 -500 Descending Boston Center
Wed 11:12:39 AM 41.3192 -71.5086 43° Northeast 265 305 5,100 -444 Descending Boston Center
Wed 11:13:02 AM 41.3336 -71.4892 45° Northeast 240 276 5,000  Descending Boston Center
Wed 11:13:39 AM 41.3561 -71.4528 51° Northeast 228 262 5,100 98 Climbing Boston Center
Wed 11:14:03 AM 41.3706 -71.4250 55° Northeast 205 236 5,100  Level Boston Center
Wed 11:14:39 AM 41.3953 -71.3942 43° Northeast 204 235 5,100  Level Boston Center
Wed 11:15:03 AM 41.4075 -71.3692 57° Northeast 201 231 5,100 -500 Level Boston Center
Wed 11:15:39 AM 41.4281 -71.3464 40° Northeast 193 222 4,600 -984 Descending Boston Center
Wed 11:16:04 AM 41.4425 -71.3214 52° Northeast 182 209 4,100 -1,100 Descending Boston Center
Wed 11:16:39 AM 41.4631 -71.2878 51° Northeast 183 211 3,500 -984 Descending Boston Center
Wed 11:17:05 AM 41.4753 -71.2653 54° Northeast 184 212 3,100 -400 Descending Boston Center
Wed 11:17:39 AM 41.4936 -71.2428 43° Northeast 183 211 3,100  Level Boston Center
Wed 11:18:05 AM 41.5125 -71.2314 24° Northeast 171 197 3,100  Level Boston Center
Wed 11:18:39 AM 41.5375 -71.2364 351° North 145 167 3,100 -98 Level Boston Center
Wed 11:19:06 AM 41.5522 -71.2500 325° Northwest 153 176 3,000 -545 Descending Boston Center
Wed 11:20:07 AM 41.5881 -71.2828 326° Northwest 155 178 2,300 -496 Descending Boston Center
Wed 11:21:07 AM 41.6194 -71.3183 320° Northwest 152 175 2,000 -298 Descending Boston Center
Wed 11:22:08 AM 41.6553 -71.3564 322° Northwest 154 177 1,700 -541 Descending Boston Center
Wed 11:23:09 AM 41.6828 -71.3867 321° Northwest 136 157 900 -738 Descending Boston Center
Wed 11:24:10 AM 41.7142 -71.4139 327° Northwest 133 153 200 -689 Descending Boston Center

Login

Don't have an account? Register now (free) for customized features, flight alerts, and more!